Aviation Digital Data Service (ADDS)

Output produced by METARs form (0244 UTC 24 July 2017)
found at http://www.aviationweather.gov/adds/metars/
 
TAF MGGT 232300Z 2400/2424 36012KT 9999 SCT014 TX25/2420Z TN16/2412Z 
     PROB40 2400/2412 7000 RA BKN012 BKN080 
     BECMG 2315/2317 02008KT SCT018 
     TEMPO 2420/2424 8000 TSRA SCT018TCU FEW025CB
       
TAF MGMM 232300Z 2400/2424 00000KT 9999 SCT016 TX34/2420Z TN23/2412Z 
     PROB30 2408/2414 8000 RA BKN012 BKN080 
     BECMG 2415/2417 09010KT SCT018 
     TEMPO 2420/2424 SCT020TCU
       
TAF MGPB 232300Z 2400/2424 00000KT 9999 SCT016 TX32/2420Z TN23/2412Z 
     TEMPO 2400/2412 8000 TSRA SCT018TCU FEW025CB 
     BECMG 2415/2417 05008KT SCT018 
     TEMPO 2421/2424 8000 VCTSRA SCT020 FEW025CB
       
TAF MGSJ 232300Z 2400/2424 18008KT 8000 FEW018 TX34/2420Z TN23/2412Z 
     BECMG 2404/2406 00000KT CAVOK 
     BECMG 2415/2417 18008KT FEW020 
     BECMG 2419/2421 SCT020TCU
       
TAF MGGT 232300Z 2400/2424 36012KT 9999 SCT014 TX25/2420Z TN16/2412Z 
     PROB40 2400/2412 7000 RA BKN012 BKN080 
     BECMG 2315/2317 02008KT SCT018 
     TEMPO 2420/2424 8000 TSRA SCT018TCU FEW025CB
       
TAF MGPB 232300Z 2400/2424 00000KT 9999 SCT016 TX32/2420Z TN23/2412Z 
     TEMPO 2400/2412 8000 TSRA SCT018TCU FEW025CB 
     BECMG 2415/2417 05008KT SCT018 
     TEMPO 2421/2424 8000 VCTSRA SCT020 FEW025CB
       
TAF MGSJ 232300Z 2400/2424 18008KT 8000 FEW018 TX34/2420Z TN23/2412Z 
     BECMG 2404/2406 00000KT CAVOK 
     BECMG 2415/2417 18008KT FEW020 
     BECMG 2419/2421 SCT020TCU